createdAt,value
2019-05-29T00:00:19.297Z,100128.99
2019-05-29T00:01:23.601Z,100131.87
2019-05-29T00:02:28.363Z,100130.00
2019-05-29T00:03:32.556Z,100138.52
2019-05-29T00:04:37.784Z,100135.42
2019-05-29T00:05:41.957Z,100139.91
2019-05-29T00:06:46.734Z,100138.23
2019-05-29T00:07:51.331Z,100143.81
2019-05-29T00:08:56.198Z,100140.99
2019-05-29T00:10:00.425Z,100147.72
2019-05-29T00:11:06.709Z,100143.76
2019-05-29T00:12:15.155Z,100150.48
2019-05-29T00:13:18.495Z,100148.24
2019-05-29T00:14:27.305Z,100156.47
2019-05-29T00:15:29.625Z,100155.02
2019-05-29T00:16:33.912Z,100154.19
2019-05-29T00:17:38.683Z,100156.42
2019-05-29T00:18:42.868Z,100155.28
2019-05-29T00:19:47.696Z,100153.56
2019-05-29T00:20:51.987Z,100155.54
2019-05-29T00:21:56.759Z,100156.38
2019-05-29T00:23:01.093Z,100154.39
2019-05-29T00:24:06.375Z,100162.52
2019-05-29T00:25:12.486Z,100161.17
2019-05-29T00:26:17.593Z,100156.64
2019-05-29T00:27:21.956Z,100157.20
2019-05-29T00:28:26.789Z,100165.34
2019-05-29T00:29:31.317Z,100164.20
2019-05-29T00:30:36.544Z,100165.03
2019-05-29T00:31:41.010Z,100170.66
2019-05-29T00:32:45.786Z,100172.63
2019-05-29T00:33:50.248Z,100165.33
2019-05-29T00:34:55.263Z,100172.63
2019-05-29T00:35:59.503Z,100167.01
2019-05-29T00:37:04.471Z,100172.69
2019-05-29T00:38:08.957Z,100178.58
2019-05-29T00:39:14.834Z,100172.06
2019-05-29T00:40:19.060Z,100172.06
2019-05-29T00:41:24.342Z,100174.86
2019-05-29T00:42:28.757Z,100176.58
2019-05-29T00:43:33.974Z,100178.31
2019-05-29T00:44:38.165Z,100183.69
2019-05-29T00:45:43.030Z,100174.09
2019-05-29T00:46:47.282Z,100174.93
2019-05-29T00:47:52.269Z,100176.59
2019-05-29T00:48:56.476Z,100177.17
2019-05-29T00:50:01.496Z,100186.71
2019-05-29T00:51:05.830Z,100188.95
2019-05-29T00:52:12.217Z,100185.02
2019-05-29T00:53:16.691Z,100182.75
2019-05-29T00:54:21.458Z,100185.28
2019-05-29T00:55:25.650Z,100186.70
2019-05-29T00:56:30.489Z,100185.55
2019-05-29T00:57:34.689Z,100192.02
2019-05-29T00:58:41.497Z,100191.70
2019-05-29T00:59:45.546Z,100185.23
2019-05-29T01:00:50.407Z,100188.36
2019-05-29T01:01:54.615Z,100194.00
2019-05-29T01:02:59.598Z,100193.80
2019-05-29T01:04:03.907Z,100187.86
2019-05-29T01:05:09.797Z,100187.28
2019-05-29T01:06:16.060Z,100193.47
2019-05-29T01:07:20.866Z,100193.17
2019-05-29T01:08:25.047Z,100192.08
2019-05-29T01:09:30.007Z,100189.58
2019-05-29T01:10:34.255Z,100196.09
2019-05-29T01:11:39.163Z,100192.66
2019-05-29T01:12:43.341Z,100201.62
2019-05-29T01:13:48.108Z,100199.36
2019-05-29T01:14:52.509Z,100201.91
2019-05-29T01:15:57.270Z,100204.98
2019-05-29T01:17:01.572Z,100199.63
2019-05-29T01:18:06.426Z,100212.55
2019-05-29T01:19:25.499Z,100207.19
2019-05-29T01:20:30.461Z,100213.91
2019-05-29T01:21:35.203Z,100211.72
2019-05-29T01:22:39.955Z,100212.66
2019-05-29T01:23:44.183Z,100219.66
2019-05-29T01:24:48.948Z,100213.71
2019-05-29T01:25:53.267Z,100222.14
2019-05-29T01:26:58.180Z,100219.59
2019-05-29T01:28:02.493Z,100207.88
2019-05-29T01:29:07.451Z,100221.52
2019-05-29T01:30:11.570Z,100221.21
2019-05-29T01:31:17.742Z,100227.41
2019-05-29T01:32:22.049Z,100226.27
2019-05-29T01:33:26.820Z,100230.49
2019-05-29T01:34:31.002Z,100231.90
2019-05-29T01:35:35.810Z,100225.12
2019-05-29T01:36:40.013Z,100231.85
2019-05-29T01:37:44.852Z,100238.05
2019-05-29T01:38:49.027Z,100237.74
2019-05-29T01:39:53.791Z,100235.86
2019-05-29T01:40:58.011Z,100247.12
2019-05-29T01:42:02.842Z,100243.78
2019-05-29T01:43:07.129Z,100243.47
2019-05-29T01:44:11.959Z,100251.91
2019-05-29T01:45:17.381Z,100239.81
2019-05-29T01:46:23.839Z,100237.27
2019-05-29T01:47:28.105Z,100248.84
2019-05-29T01:48:33.949Z,100248.27
2019-05-29T01:49:38.232Z,100251.61
2019-05-29T01:50:43.430Z,100248.48
2019-05-29T01:51:47.724Z,100247.34
2019-05-29T01:52:52.566Z,100248.78
2019-05-29T01:53:56.740Z,100252.75
2019-05-29T01:55:01.578Z,100250.72
2019-05-29T01:56:06.862Z,100250.46
2019-05-29T01:57:11.634Z,100254.99
2019-05-29T01:58:15.953Z,100249.93
2019-05-29T01:59:21.889Z,100251.34
2019-05-29T02:00:26.261Z,100248.78
2019-05-29T02:01:31.026Z,100261.72
2019-05-29T02:02:35.367Z,100257.80
2019-05-29T02:03:40.238Z,100259.78
2019-05-29T02:04:44.436Z,100258.11
2019-05-29T02:05:49.287Z,100263.48
2019-05-29T02:06:53.475Z,100261.19
2019-05-29T02:07:58.489Z,100254.42
2019-05-29T02:09:02.665Z,100256.70
2019-05-29T02:10:08.770Z,100264.84
2019-05-29T02:11:12.941Z,100258.38
2019-05-29T02:12:19.294Z,100258.95
2019-05-29T02:13:23.884Z,100260.05
2019-05-29T02:14:28.649Z,100261.72
2019-05-29T02:15:34.147Z,100261.98
2019-05-29T02:16:40.143Z,100267.87
2019-05-29T02:17:44.408Z,100259.88
2019-05-29T02:18:49.463Z,100264.01
2019-05-29T02:19:53.841Z,100278.34
2019-05-29T02:20:58.660Z,100278.88
2019-05-29T02:22:02.922Z,100278.88
2019-05-29T02:23:07.787Z,100280.28
2019-05-29T02:24:12.001Z,100276.06
2019-05-29T02:25:18.129Z,100282.26
2019-05-29T02:26:22.688Z,100281.69
2019-05-29T02:27:27.790Z,100285.91
2019-05-29T02:28:32.699Z,100282.52
2019-05-29T02:29:37.763Z,100280.90
2019-05-29T02:30:41.957Z,100279.23
2019-05-29T02:31:46.714Z,100287.67
2019-05-29T02:32:51.017Z,100288.02
2019-05-29T02:33:55.903Z,100283.80
2019-05-29T02:35:00.099Z,100291.11
2019-05-29T02:36:05.662Z,100287.72
2019-05-29T02:37:09.827Z,100293.61
2019-05-29T02:38:14.585Z,100289.70
2019-05-29T02:39:20.925Z,100295.90
2019-05-29T02:40:27.892Z,100296.73
2019-05-29T02:41:31.358Z,100299.55
2019-05-29T02:42:36.114Z,100297.61
2019-05-29T02:43:40.354Z,100303.24
2019-05-29T02:44:45.222Z,100305.19
2019-05-29T02:45:54.448Z,100297.09
2019-05-29T02:46:55.905Z,100302.42
2019-05-29T02:48:00.072Z,100297.63
2019-05-29T02:49:05.187Z,100303.83
2019-05-29T02:50:09.865Z,100300.44
2019-05-29T02:51:14.691Z,100305.50
2019-05-29T02:52:20.076Z,100300.13
2019-05-29T02:53:26.202Z,100309.41
2019-05-29T02:54:32.300Z,100303.78
2019-05-29T02:55:37.329Z,100310.86
2019-05-29T02:56:42.811Z,100315.09
2019-05-29T02:57:47.645Z,100307.22
2019-05-29T02:58:52.280Z,100317.64
2019-05-29T02:59:57.052Z,100311.17
2019-05-29T03:01:01.325Z,100317.64
2019-05-29T03:02:06.443Z,100320.76
2019-05-29T03:03:10.676Z,100317.11
2019-05-29T03:04:15.595Z,100321.06
2019-05-29T03:05:19.766Z,100318.52
2019-05-29T03:06:26.079Z,100317.95
2019-05-29T03:07:31.149Z,100318.52
2019-05-29T03:08:37.084Z,100324.41
2019-05-29T03:09:41.290Z,100320.80
2019-05-29T03:10:46.120Z,100324.49
2019-05-29T03:11:50.292Z,100321.38
2019-05-29T03:12:55.144Z,100323.09
2019-05-29T03:14:00.332Z,100328.98
2019-05-29T03:15:09.730Z,100328.98
2019-05-29T03:16:13.945Z,100330.12
2019-05-29T03:17:18.750Z,100340.23
2019-05-29T03:18:23.957Z,100330.39
2019-05-29T03:19:30.334Z,100344.20
2019-05-29T03:20:35.291Z,100338.83
2019-05-29T03:21:40.045Z,100351.77
2019-05-29T03:22:45.287Z,100348.11
2019-05-29T03:23:50.061Z,100344.46
2019-05-29T03:24:54.309Z,100343.05
2019-05-29T03:25:59.253Z,100353.17
2019-05-29T03:27:04.589Z,100356.55
2019-05-29T03:28:09.335Z,100347.33
2019-05-29T03:29:14.660Z,100357.43
2019-05-29T03:30:19.526Z,100353.78
2019-05-29T03:31:23.757Z,100357.73
2019-05-29T03:32:32.414Z,100361.39
2019-05-29T03:33:43.135Z,100354.92
2019-05-29T03:34:46.477Z,100358.00
2019-05-29T03:35:48.617Z,100353.22
2019-05-29T03:36:53.679Z,100365.62
2019-05-29T03:37:58.876Z,100359.42
2019-05-29T03:39:05.832Z,100358.84
2019-05-29T03:40:10.088Z,100365.61
2019-05-29T03:41:14.924Z,100358.57
2019-05-29T03:42:19.146Z,100364.48
2019-05-29T03:43:23.896Z,100370.66
2019-05-29T03:44:28.728Z,100362.80
2019-05-29T03:45:35.699Z,100370.40
2019-05-29T03:46:45.308Z,100373.48
2019-05-29T03:47:46.555Z,100370.66
2019-05-29T03:48:50.793Z,100376.83
2019-05-29T03:49:55.616Z,100382.19
2019-05-29T03:50:59.789Z,100368.20
2019-05-29T03:52:05.471Z,100378.80
2019-05-29T03:53:09.714Z,100385.53
2019-05-29T03:54:14.591Z,100384.44
2019-05-29T03:55:18.764Z,100384.16
2019-05-29T03:56:23.573Z,100382.45
2019-05-29T03:57:29.759Z,100388.34
2019-05-29T03:58:37.515Z,100377.44
2019-05-29T03:59:41.452Z,100389.23
2019-05-29T04:00:48.816Z,100388.12
2019-05-29T04:01:52.244Z,100388.66
2019-05-29T04:02:56.997Z,100392.87
2019-05-29T04:04:01.274Z,100393.71
2019-05-29T04:05:07.839Z,100397.94
2019-05-29T04:06:12.169Z,100391.55
2019-05-29T04:07:16.984Z,100396.30
2019-05-29T04:08:21.160Z,100398.86
2019-05-29T04:09:27.097Z,100387.72
2019-05-29T04:10:32.867Z,100405.32
2019-05-29T04:11:38.355Z,100396.57
2019-05-29T04:12:42.855Z,100403.61
2019-05-29T04:13:47.616Z,100396.84
2019-05-29T04:14:51.857Z,100406.98
2019-05-29T04:15:56.743Z,100410.06
2019-05-29T04:17:00.988Z,100405.54
2019-05-29T04:18:06.432Z,100409.77
2019-05-29T04:19:10.612Z,100412.01
2019-05-29T04:20:15.378Z,100413.98
2019-05-29T04:21:19.923Z,100415.39
2019-05-29T04:22:28.332Z,100417.06
2019-05-29T04:23:36.307Z,100416.23
2019-05-29T04:24:41.535Z,100416.23
2019-05-29T04:25:45.864Z,100424.94
2019-05-29T04:26:51.050Z,100426.34
2019-05-29T04:27:55.212Z,100431.17
2019-05-29T04:28:59.964Z,100432.58
2019-05-29T04:30:05.788Z,100435.40
2019-05-29T04:31:10.678Z,100429.77
2019-05-29T04:32:14.987Z,100432.05
2019-05-29T04:33:19.827Z,100432.97
2019-05-29T04:34:24.014Z,100431.52
2019-05-29T04:35:30.262Z,100439.66
2019-05-29T04:36:34.915Z,100437.37
2019-05-29T04:37:40.371Z,100436.28
2019-05-29T04:38:44.627Z,100439.36
2019-05-29T04:39:49.546Z,100442.73
2019-05-29T04:40:53.797Z,100442.44
2019-05-29T04:41:58.695Z,100442.70
2019-05-29T04:43:02.913Z,100450.61
2019-05-29T04:44:07.684Z,100448.91
2019-05-29T04:45:12.425Z,100446.66
2019-05-29T04:46:17.222Z,100445.25
2019-05-29T04:47:21.408Z,100453.39
2019-05-29T04:48:26.253Z,100451.94
2019-05-29T04:49:31.945Z,100458.67
2019-05-29T04:50:39.708Z,100450.61
2019-05-29T04:51:42.826Z,100461.45
2019-05-29T04:52:47.587Z,100466.77
2019-05-29T04:53:51.896Z,100465.63
2019-05-29T04:54:56.652Z,100464.52
2019-05-29T04:56:00.934Z,100466.77
2019-05-29T04:57:05.757Z,100470.69
2019-05-29T04:58:10.013Z,100473.77
2019-05-29T04:59:15.091Z,100471.27
2019-05-29T05:00:19.257Z,100474.66
2019-05-29T05:01:24.050Z,100467.95
2019-05-29T05:02:28.934Z,100467.95
2019-05-29T05:03:33.729Z,100487.05
2019-05-29T05:04:39.321Z,100483.92
2019-05-29T05:05:43.946Z,100485.60
2019-05-29T05:06:48.114Z,100491.50
2019-05-29T05:07:52.936Z,100488.98
2019-05-29T05:08:57.126Z,100493.74
2019-05-29T05:10:01.927Z,100491.27
2019-05-29T05:11:06.166Z,100494.92
2019-05-29T05:12:10.987Z,100493.78
2019-05-29T05:13:15.159Z,100495.45
2019-05-29T05:14:19.916Z,100492.91
2019-05-29T05:15:24.305Z,100492.38
2019-05-29T05:16:29.749Z,100498.27
2019-05-29T05:17:34.017Z,100499.67
2019-05-29T05:18:40.056Z,100498.27
2019-05-29T05:19:44.391Z,100500.55
2019-05-29T05:20:49.349Z,100498.58
2019-05-29T05:21:53.517Z,100500.28
2019-05-29T05:22:58.346Z,100498.27
2019-05-29T05:24:03.440Z,100500.55
2019-05-29T05:25:08.308Z,100499.14
2019-05-29T05:26:12.544Z,100503.63
2019-05-29T05:27:17.306Z,100504.70
2019-05-29T05:28:21.534Z,100498.80
2019-05-29T05:29:26.287Z,100506.41
2019-05-29T05:30:30.473Z,100507.52
2019-05-29T05:31:36.473Z,100511.13
2019-05-29T05:32:41.300Z,100515.89
2019-05-29T05:33:47.087Z,100520.38
2019-05-29T05:34:51.272Z,100515.88
2019-05-29T05:35:56.092Z,100524.06
2019-05-29T05:37:00.332Z,100524.06
2019-05-29T05:38:05.373Z,100520.95
2019-05-29T05:39:09.610Z,100523.72
2019-05-29T05:40:14.452Z,100527.64
2019-05-29T05:41:18.617Z,100524.25
2019-05-29T05:42:23.168Z,100528.22
2019-05-29T05:43:27.338Z,100528.22
2019-05-29T05:44:32.831Z,100532.17
2019-05-29T05:45:37.177Z,100538.41
2019-05-29T05:46:41.929Z,100538.67
2019-05-29T05:47:56.869Z,100538.98
2019-05-29T05:48:52.811Z,100541.49
2019-05-29T05:49:56.993Z,100546.28
2019-05-29T05:51:01.751Z,100543.47
2019-05-29T05:52:05.937Z,100546.92
2019-05-29T05:53:10.968Z,100545.48
2019-05-29T05:54:15.243Z,100546.05
2019-05-29T05:55:20.126Z,100544.38
2019-05-29T05:56:24.366Z,100550.02
2019-05-29T05:57:29.214Z,100552.90
2019-05-29T05:58:33.785Z,100553.20
2019-05-29T05:59:39.906Z,100554.30
2019-05-29T06:00:44.203Z,100558.48
2019-05-29T06:01:48.967Z,100558.26
2019-05-29T06:02:54.221Z,100560.80
2019-05-29T06:03:59.000Z,100561.34
2019-05-29T06:05:03.492Z,100559.70
2019-05-29T06:06:08.288Z,100566.70
2019-05-29T06:07:12.476Z,100562.75
2019-05-29T06:08:17.299Z,100571.46
2019-05-29T06:09:21.488Z,100564.39
2019-05-29T06:10:26.300Z,100569.41
2019-05-29T06:11:32.178Z,100564.39
2019-05-29T06:12:38.677Z,100569.28
2019-05-29T06:13:42.990Z,100572.64
2019-05-29T06:14:47.767Z,100573.73
2019-05-29T06:15:52.026Z,100574.24
2019-05-29T06:16:56.797Z,100567.44
2019-05-29T06:18:19.941Z,100575.95
2019-05-29T06:19:08.251Z,100572.80
2019-05-29T06:20:12.430Z,100577.83
2019-05-29T06:21:17.311Z,100582.85
2019-05-29T06:22:21.502Z,100579.73
2019-05-29T06:23:27.379Z,100577.75
2019-05-29T06:24:33.385Z,100580.34
2019-05-29T06:25:39.933Z,100578.33
2019-05-29T06:26:45.315Z,100585.67
2019-05-29T06:27:50.076Z,100584.49
2019-05-29T06:28:54.244Z,100581.38
2019-05-29T06:29:59.110Z,100586.50
2019-05-29T06:31:03.330Z,100582.39
2019-05-29T06:32:08.154Z,100582.39
2019-05-29T06:33:12.331Z,100587.11
2019-05-29T06:34:17.168Z,100587.08
2019-05-29T06:35:22.633Z,100585.63
2019-05-29T06:36:27.394Z,100587.81
2019-05-29T06:37:31.631Z,100578.52
2019-05-29T06:38:37.560Z,100589.25
2019-05-29T06:39:41.840Z,100582.48
2019-05-29T06:40:46.718Z,100591.20
2019-05-29T06:41:51.100Z,100583.31
2019-05-29T06:42:55.957Z,100592.83
2019-05-29T06:44:00.146Z,100596.98
2019-05-29T06:45:06.935Z,100587.70
2019-05-29T06:46:11.220Z,100597.52
2019-05-29T06:47:16.033Z,100601.21
2019-05-29T06:48:41.769Z,100598.66
2019-05-29T06:49:32.021Z,100597.74
2019-05-29T06:50:37.366Z,100597.67
2019-05-29T06:51:43.545Z,100601.97
2019-05-29T06:52:47.826Z,100597.97
2019-05-29T06:53:52.664Z,100602.50
2019-05-29T06:54:56.819Z,100597.17
2019-05-29T06:56:02.725Z,100604.14
2019-05-29T06:57:07.682Z,100604.14
2019-05-29T06:58:12.440Z,100604.41
2019-05-29T06:59:16.668Z,100611.18
2019-05-29T07:00:34.844Z,100613.16
2019-05-29T07:01:27.355Z,100615.41
2019-05-29T07:02:32.112Z,100614.22
2019-05-29T07:03:37.599Z,100619.52
2019-05-29T07:04:42.621Z,100621.19
2019-05-29T07:05:51.355Z,100624.30
2019-05-29T07:06:53.296Z,100629.33
2019-05-29T07:07:57.464Z,100616.66
2019-05-29T07:09:02.387Z,100625.38
2019-05-29T07:10:07.029Z,100632.42
2019-05-29T07:11:11.816Z,100629.64
2019-05-29T07:12:16.148Z,100631.05
2019-05-29T07:13:20.896Z,100626.48
2019-05-29T07:14:25.073Z,100637.18
2019-05-29T07:15:29.847Z,100639.66
2019-05-29T07:16:47.644Z,100637.06
2019-05-29T07:17:40.543Z,100639.00
2019-05-29T07:19:18.356Z,100637.77
2019-05-29T07:20:02.783Z,100640.28
2019-05-29T07:20:57.148Z,100637.95
2019-05-29T07:22:01.917Z,100639.02
2019-05-29T07:23:06.085Z,100641.34
2019-05-29T07:24:10.870Z,100643.28
2019-05-29T07:25:15.112Z,100646.94
2019-05-29T07:26:20.016Z,100648.92
2019-05-29T07:27:24.200Z,100651.16
2019-05-29T07:28:29.096Z,100653.98
2019-05-29T07:29:33.264Z,100656.49
2019-05-29T07:30:39.131Z,100663.50
2019-05-29T07:31:44.879Z,100657.52
2019-05-29T07:32:56.925Z,100651.83
2019-05-29T07:33:55.796Z,100655.17
2019-05-29T07:35:03.836Z,100661.66
2019-05-29T07:36:07.728Z,100659.41
2019-05-29T07:37:13.023Z,100657.11
2019-05-29T07:38:17.182Z,100661.08
2019-05-29T07:39:22.053Z,100666.15
2019-05-29T07:40:26.246Z,100665.76
2019-05-29T07:41:31.002Z,100668.58
2019-05-29T07:42:35.282Z,100668.52
2019-05-29T07:43:40.148Z,100667.69
2019-05-29T07:44:44.424Z,100663.63
2019-05-29T07:45:49.183Z,100670.32
2019-05-29T07:46:53.692Z,100662.06
2019-05-29T07:47:58.731Z,100670.69
2019-05-29T07:49:02.902Z,100665.88
2019-05-29T07:50:07.745Z,100664.91
2019-05-29T07:51:12.167Z,100663.69
2019-05-29T07:52:16.929Z,100666.98
2019-05-29T07:53:21.112Z,100659.56
2019-05-29T07:54:25.936Z,100664.22
2019-05-29T07:55:30.263Z,100664.20
2019-05-29T07:56:35.066Z,100661.86
2019-05-29T07:57:40.718Z,100669.08
2019-05-29T07:58:58.875Z,100664.63
2019-05-29T07:59:51.669Z,100661.16
2019-05-29T08:01:12.402Z,100660.74
2019-05-29T08:02:02.341Z,100664.34
2019-05-29T08:03:07.105Z,100661.41
2019-05-29T08:04:11.290Z,100669.77
2019-05-29T08:05:16.364Z,100667.39
2019-05-29T08:06:20.771Z,100663.34
2019-05-29T08:07:25.528Z,100668.08
2019-05-29T08:08:29.774Z,100659.66
2019-05-29T08:09:35.536Z,100670.80
2019-05-29T08:10:40.534Z,100672.15
2019-05-29T08:11:47.715Z,100677.28
2019-05-29T08:12:55.505Z,100678.06
2019-05-29T08:13:58.415Z,100676.31
2019-05-29T08:15:02.585Z,100681.91
2019-05-29T08:16:08.965Z,100681.33
2019-05-29T08:17:13.270Z,100678.77
2019-05-29T08:18:18.134Z,100683.78
2019-05-29T08:19:22.386Z,100678.65
2019-05-29T08:20:27.141Z,100680.36
2019-05-29T08:21:31.308Z,100684.22
2019-05-29T08:22:36.067Z,100684.59
2019-05-29T08:23:40.380Z,100676.00
2019-05-29T08:24:47.679Z,100677.67
2019-05-29T08:25:51.984Z,100686.09
2019-05-29T08:26:56.777Z,100681.71
2019-05-29T08:28:01.016Z,100681.71
2019-05-29T08:29:05.682Z,100678.25
2019-05-29T08:30:10.721Z,100680.44
2019-05-29T08:31:15.477Z,100685.78
2019-05-29T08:32:19.640Z,100687.42
2019-05-29T08:33:25.370Z,100688.20
2019-05-29T08:34:29.659Z,100685.56
2019-05-29T08:35:34.429Z,100687.41
2019-05-29T08:36:39.148Z,100694.68
2019-05-29T08:37:44.990Z,100691.33
2019-05-29T08:38:49.375Z,100694.94
2019-05-29T08:39:54.149Z,100693.44
2019-05-29T08:40:58.398Z,100686.23
2019-05-29T08:42:21.826Z,100696.05
2019-05-29T08:43:09.125Z,100694.80
2019-05-29T08:44:13.930Z,100700.91
2019-05-29T08:45:18.781Z,100700.55
2019-05-29T08:46:23.670Z,100698.84
2019-05-29T08:47:27.900Z,100701.64
2019-05-29T08:48:32.645Z,100698.43
2019-05-29T08:49:36.818Z,100700.36
2019-05-29T08:50:41.738Z,100693.80
2019-05-29T08:51:46.084Z,100699.71
2019-05-29T08:52:52.311Z,100698.52
2019-05-29T08:53:56.514Z,100694.40
2019-05-29T08:55:01.284Z,100703.08
2019-05-29T08:56:05.925Z,100698.15
2019-05-29T08:57:10.761Z,100702.33
2019-05-29T08:58:14.935Z,100697.95
2019-05-29T08:59:19.987Z,100699.91
2019-05-29T09:00:24.255Z,100695.52
2019-05-29T09:01:29.749Z,100700.79
2019-05-29T09:02:33.922Z,100699.02
2019-05-29T09:03:38.745Z,100699.38
2019-05-29T09:04:43.151Z,100694.77
2019-05-29T09:06:04.904Z,100699.74
2019-05-29T09:06:54.206Z,100699.59
2019-05-29T09:07:59.115Z,100693.31
2019-05-29T09:09:03.349Z,100690.84
2019-05-29T09:10:08.309Z,100688.72
2019-05-29T09:11:13.514Z,100704.16
2019-05-29T09:12:18.380Z,100700.59
2019-05-29T09:13:22.649Z,100687.55
2019-05-29T09:14:27.422Z,100703.90
2019-05-29T09:15:31.665Z,100702.33
2019-05-29T09:16:36.568Z,100700.00
2019-05-29T09:17:40.799Z,100700.12
2019-05-29T09:18:45.643Z,100705.06
2019-05-29T09:19:49.978Z,100702.73
2019-05-29T09:21:03.286Z,100698.94
2019-05-29T09:22:00.669Z,100703.37
2019-05-29T09:23:05.500Z,100699.77
2019-05-29T09:24:09.810Z,100707.04
2019-05-29T09:25:16.920Z,100706.53
2019-05-29T09:26:24.644Z,100701.37
2019-05-29T09:27:27.709Z,100709.22
2019-05-29T09:28:32.601Z,100708.05
2019-05-29T09:29:37.609Z,100716.56
2019-05-29T09:30:42.424Z,100713.34
2019-05-29T09:31:47.236Z,100714.38
2019-05-29T09:32:53.043Z,100713.80
2019-05-29T09:33:57.998Z,100713.80
2019-05-29T09:35:02.178Z,100715.27
2019-05-29T09:36:08.485Z,100709.27
2019-05-29T09:37:14.183Z,100694.20
2019-05-29T09:38:19.307Z,100709.59
2019-05-29T09:39:24.790Z,100714.10
2019-05-29T09:40:29.704Z,100718.06
2019-05-29T09:41:34.020Z,100718.81
2019-05-29T09:42:38.984Z,100717.34
2019-05-29T09:43:57.772Z,100719.60
2019-05-29T09:44:49.977Z,100711.55
2019-05-29T09:45:54.448Z,100720.94
2019-05-29T09:46:59.334Z,100710.17
2019-05-29T09:48:04.538Z,100723.03
2019-05-29T09:49:09.371Z,100721.28
2019-05-29T09:50:13.691Z,100724.45
2019-05-29T09:51:21.656Z,100730.63
2019-05-29T09:52:24.602Z,100726.66
2019-05-29T09:53:29.364Z,100727.75
2019-05-29T09:54:33.778Z,100725.41
2019-05-29T09:55:38.571Z,100730.75
2019-05-29T09:56:43.196Z,100716.44
2019-05-29T09:57:47.956Z,100732.84
2019-05-29T09:58:53.673Z,100731.42
2019-05-29T10:00:00.318Z,100727.41
2019-05-29T10:01:21.945Z,100733.17
2019-05-29T10:02:11.218Z,100734.89
2019-05-29T10:03:15.492Z,100729.55
2019-05-29T10:04:20.249Z,100734.13
2019-05-29T10:05:24.435Z,100730.62
2019-05-29T10:06:29.266Z,100736.42
2019-05-29T10:07:33.465Z,100734.50
2019-05-29T10:08:38.221Z,100730.29
2019-05-29T10:09:42.403Z,100735.08
2019-05-29T10:10:47.173Z,100735.25
2019-05-29T10:11:51.480Z,100732.04
2019-05-29T10:12:56.507Z,100734.72
2019-05-29T10:14:02.786Z,100731.17
2019-05-29T10:15:09.585Z,100739.85
2019-05-29T10:16:13.871Z,100731.51
2019-05-29T10:17:18.655Z,100728.84
2019-05-29T10:18:31.819Z,100734.80
2019-05-29T10:19:29.306Z,100723.45
2019-05-29T10:20:33.557Z,100723.45
2019-05-29T10:21:40.787Z,100731.05
2019-05-29T10:22:44.349Z,100732.00
2019-05-29T10:23:50.214Z,100730.66
2019-05-29T10:24:56.300Z,100731.44
2019-05-29T10:26:02.905Z,100734.03
2019-05-29T10:27:06.941Z,100733.30
2019-05-29T10:28:13.121Z,100731.06
2019-05-29T10:29:17.401Z,100731.52
2019-05-29T10:30:22.979Z,100735.84
2019-05-29T10:31:27.154Z,100728.51
2019-05-29T10:32:31.944Z,100725.73
2019-05-29T10:33:36.213Z,100734.11
2019-05-29T10:34:42.214Z,100730.75
2019-05-29T10:35:49.098Z,100733.11
2019-05-29T10:36:54.723Z,100735.09
2019-05-29T10:37:59.498Z,100734.94
2019-05-29T10:39:08.324Z,100735.23
2019-05-29T10:40:12.808Z,100740.77
2019-05-29T10:41:17.586Z,100732.92
2019-05-29T10:42:21.809Z,100739.34
2019-05-29T10:43:34.236Z,100733.84
2019-05-29T10:44:32.525Z,100741.10
2019-05-29T10:45:37.322Z,100734.73
2019-05-29T10:46:41.487Z,100734.38
2019-05-29T10:47:47.358Z,100724.02
2019-05-29T10:48:53.967Z,100724.92
2019-05-29T10:49:58.115Z,100734.28
2019-05-29T10:51:02.309Z,100733.00
2019-05-29T10:52:15.798Z,100728.67
2019-05-29T10:53:13.054Z,100723.47
2019-05-29T10:54:17.842Z,100729.98
2019-05-29T10:55:22.966Z,100729.65
2019-05-29T10:56:27.877Z,100728.81
2019-05-29T10:57:32.236Z,100735.19
2019-05-29T10:58:48.414Z,100733.00
2019-05-29T10:59:43.008Z,100725.89
2019-05-29T11:00:49.047Z,100732.27
2019-05-29T11:01:53.911Z,100728.09
2019-05-29T11:02:58.769Z,100728.78
2019-05-29T11:04:03.048Z,100726.59
2019-05-29T11:05:07.873Z,100727.86
2019-05-29T11:06:12.074Z,100732.23
2019-05-29T11:07:16.997Z,100729.48
2019-05-29T11:08:21.182Z,100737.27
2019-05-29T11:09:25.937Z,100735.67
2019-05-29T11:10:30.133Z,100735.83
2019-05-29T11:11:34.894Z,100735.08
2019-05-29T11:12:39.893Z,100737.41
2019-05-29T11:13:44.834Z,100736.42
2019-05-29T11:14:49.000Z,100732.43
2019-05-29T11:15:54.823Z,100730.48
2019-05-29T11:16:59.291Z,100733.42
2019-05-29T11:18:05.209Z,100735.42
2019-05-29T11:19:09.412Z,100734.09
2019-05-29T11:20:14.234Z,100736.45
2019-05-29T11:21:18.441Z,100732.52
2019-05-29T11:22:26.536Z,100729.09
2019-05-29T11:23:30.397Z,100730.27
2019-05-29T11:24:35.240Z,100730.16
2019-05-29T11:25:39.552Z,100733.25
2019-05-29T11:26:44.309Z,100732.27
2019-05-29T11:27:48.591Z,100728.00
2019-05-29T11:28:54.443Z,100732.52
2019-05-29T11:29:59.185Z,100726.83
2019-05-29T11:31:06.230Z,100734.19
2019-05-29T11:32:10.560Z,100727.75
2019-05-29T11:33:15.568Z,100726.33
2019-05-29T11:34:20.143Z,100723.39
2019-05-29T11:35:25.068Z,100724.50
2019-05-29T11:36:29.318Z,100726.06
2019-05-29T11:37:34.090Z,100726.73
2019-05-29T11:38:38.419Z,100729.75
2019-05-29T11:39:43.293Z,100732.16
2019-05-29T11:40:48.921Z,100727.20
2019-05-29T11:41:54.777Z,100731.63
2019-05-29T11:42:59.225Z,100728.20
2019-05-29T11:44:05.217Z,100732.97
2019-05-29T11:45:09.979Z,100726.70
2019-05-29T11:46:14.924Z,100734.05
2019-05-29T11:47:19.139Z,100734.55
2019-05-29T11:48:23.921Z,100732.23
2019-05-29T11:49:28.220Z,100729.79
2019-05-29T11:50:32.984Z,100736.22
2019-05-29T11:51:37.237Z,100733.91
2019-05-29T11:52:43.415Z,100735.58
2019-05-29T11:53:47.954Z,100731.56
2019-05-29T11:54:56.142Z,100734.84
2019-05-29T11:55:59.731Z,100733.09
2019-05-29T11:57:05.626Z,100729.75
2019-05-29T11:58:09.805Z,100730.75
2019-05-29T11:59:14.553Z,100732.58
2019-05-29T12:00:20.786Z,100729.59
2019-05-29T12:01:25.387Z,100726.08
2019-05-29T12:02:29.633Z,100729.60
2019-05-29T12:03:34.657Z,100725.84
2019-05-29T12:04:38.893Z,100728.84
2019-05-29T12:05:43.768Z,100733.25
2019-05-29T12:06:47.977Z,100729.73
2019-05-29T12:07:53.618Z,100732.42
2019-05-29T12:08:59.737Z,100726.80
2019-05-29T12:10:07.968Z,100725.72
2019-05-29T12:11:13.421Z,100729.21
2019-05-29T12:12:18.181Z,100733.08
2019-05-29T12:13:22.559Z,100730.14
2019-05-29T12:14:27.293Z,100722.38
2019-05-29T12:15:31.531Z,100726.89
2019-05-29T12:16:36.434Z,100725.37
2019-05-29T12:17:41.257Z,100730.75
2019-05-29T12:18:46.536Z,100726.48
2019-05-29T12:19:51.897Z,100730.99
2019-05-29T12:20:58.315Z,100731.22